createdAt,value
2022-11-05T00:02:47.760Z,97136.97
2022-11-05T00:06:11.296Z,97139.28
2022-11-05T00:09:32.618Z,97140.31
2022-11-05T00:12:52.989Z,97149.47
2022-11-05T00:16:14.937Z,97161.41
2022-11-05T00:19:17.828Z,97168.63
2022-11-05T00:22:38.213Z,97166.97
2022-11-05T00:25:41.072Z,97177.97
2022-11-05T00:28:44.726Z,97189.25
2022-11-05T00:31:49.038Z,97198.94
2022-11-05T00:34:51.943Z,97200.56
2022-11-05T00:37:55.054Z,97209.72
2022-11-05T00:40:57.962Z,97215.28
2022-11-05T00:44:17.962Z,97218.22
2022-11-05T00:47:39.729Z,97229.69
2022-11-05T00:50:42.905Z,97236.56
2022-11-05T00:53:45.802Z,97247.03
2022-11-05T00:56:48.960Z,97260.47
2022-11-05T00:59:51.822Z,97255.38
2022-11-05T01:02:58.607Z,97263.25
2022-11-05T01:06:08.794Z,97257.19
2022-11-05T01:09:11.808Z,97271.59
2022-11-05T01:12:14.640Z,97267.22
2022-11-05T01:15:18.797Z,97272.75
2022-11-05T01:18:24.712Z,97274.22
2022-11-05T01:21:27.650Z,97279.47
2022-11-05T01:24:30.645Z,97275.72
2022-11-05T01:27:33.498Z,97268.50
2022-11-05T01:30:37.153Z,97276.50
2022-11-05T01:33:41.421Z,97282.09
2022-11-05T01:36:44.429Z,97278.50
2022-11-05T01:39:47.333Z,97277.69
2022-11-05T01:42:50.369Z,97282.25
2022-11-05T01:45:56.273Z,97277.84
2022-11-05T01:49:07.939Z,97276.66
2022-11-05T01:52:10.895Z,97278.78
2022-11-05T01:55:15.061Z,97282.41
2022-11-05T01:58:23.095Z,97290.75
2022-11-05T02:01:26.349Z,97288.63
2022-11-05T02:04:36.565Z,97287.81
2022-11-05T02:07:39.819Z,97288.97
2022-11-05T02:10:46.666Z,97292.09
2022-11-05T02:13:50.541Z,97283.28
2022-11-05T02:17:02.018Z,97291.78
2022-11-05T02:20:26.652Z,97303.75
2022-11-05T02:24:06.120Z,97314.22
2022-11-05T02:27:17.461Z,97323.22
2022-11-05T02:30:46.678Z,97335.81
2022-11-05T02:33:57.057Z,97347.63
2022-11-05T02:37:08.805Z,97360.72
2022-11-05T02:40:19.140Z,97373.50
2022-11-05T02:43:27.992Z,97374.16
2022-11-05T02:46:42.710Z,97379.75
2022-11-05T02:49:51.833Z,97383.66
2022-11-05T02:53:03.360Z,97392.66
2022-11-05T02:56:12.198Z,97393.50
2022-11-05T02:59:15.329Z,97400.69
2022-11-05T03:02:19.682Z,97404.28
2022-11-05T03:05:31.703Z,97409.53
2022-11-05T03:08:48.225Z,97410.22
2022-11-05T03:12:00.386Z,97416.44
2022-11-05T03:15:16.920Z,97419.69
2022-11-05T03:18:29.333Z,97428.84
2022-11-05T03:21:43.300Z,97436.22
2022-11-05T03:24:52.502Z,97436.88
2022-11-05T03:27:59.949Z,97443.09
2022-11-05T03:31:04.899Z,97443.41
2022-11-05T03:34:11.894Z,97450.97
2022-11-05T03:37:18.400Z,97445.72
2022-11-05T03:40:24.935Z,97452.41
2022-11-05T03:43:34.112Z,97453.34
2022-11-05T03:46:42.789Z,97455.69
2022-11-05T03:49:55.680Z,97457.97
2022-11-05T03:53:02.864Z,97466.78
2022-11-05T03:56:11.609Z,97481.72
2022-11-05T03:59:15.457Z,97488.13
2022-11-05T04:02:20.406Z,97492.38
2022-11-05T04:05:24.831Z,97497.66
2022-11-05T04:08:45.109Z,97501.56
2022-11-05T04:12:05.402Z,97512.03
2022-11-05T04:15:09.576Z,97504.84
2022-11-05T04:18:11.482Z,97512.53
2022-11-05T04:21:33.428Z,97509.13
2022-11-05T04:24:36.258Z,97518.91
2022-11-05T04:27:39.327Z,97517.91
2022-11-05T04:30:41.676Z,97515.13
2022-11-05T04:33:44.562Z,97512.47
2022-11-05T04:36:49.750Z,97512.78
2022-11-05T04:39:52.637Z,97525.22
2022-11-05T04:42:56.655Z,97529.13
2022-11-05T04:45:59.550Z,97534.69
2022-11-05T04:49:02.405Z,97541.91
2022-11-05T04:52:06.601Z,97531.91
2022-11-05T04:55:09.909Z,97529.78
2022-11-05T04:58:12.817Z,97533.44
2022-11-05T05:01:17.064Z,97546.81
2022-11-05T05:04:20.726Z,97545.88
2022-11-05T05:07:25.833Z,97551.25
2022-11-05T05:10:28.882Z,97548.16
2022-11-05T05:13:31.858Z,97552.28
2022-11-05T05:16:34.668Z,97548.63
2022-11-05T05:19:51.427Z,97548.25
2022-11-05T05:22:56.257Z,97554.81
2022-11-05T05:26:00.447Z,97552.50
2022-11-05T05:29:03.401Z,97557.75
2022-11-05T05:32:06.863Z,97563.66
2022-11-05T05:35:10.618Z,97568.56
2022-11-05T05:38:14.859Z,97574.47
2022-11-05T05:41:18.395Z,97576.75
2022-11-05T05:44:21.316Z,97579.38
2022-11-05T05:47:24.206Z,97576.09
2022-11-05T05:50:27.104Z,97579.47
2022-11-05T05:53:32.058Z,97584.41
2022-11-05T05:56:34.975Z,97595.41
2022-11-05T05:59:37.868Z,97594.75
2022-11-05T06:02:41.045Z,97594.38
2022-11-05T06:05:44.049Z,97604.53
2022-11-05T06:08:48.924Z,97605.03
2022-11-05T06:11:51.838Z,97607.47
2022-11-05T06:14:54.685Z,97615.91
2022-11-05T06:17:57.607Z,97611.00
2022-11-05T06:21:02.935Z,97609.50
2022-11-05T06:24:07.959Z,97621.13
2022-11-05T06:27:10.773Z,97632.47
2022-11-05T06:30:14.340Z,97645.91
2022-11-05T06:33:17.602Z,97667.38
2022-11-05T06:36:22.402Z,97672.00
2022-11-05T06:39:26.773Z,97679.41
2022-11-05T06:42:29.892Z,97684.31
2022-11-05T06:45:32.851Z,97685.88
2022-11-05T06:48:35.758Z,97698.81
2022-11-05T06:51:38.625Z,97707.06
2022-11-05T06:54:43.862Z,97711.78
2022-11-05T06:57:46.714Z,97707.34
2022-11-05T07:00:50.172Z,97715.81
2022-11-05T07:03:53.341Z,97718.66
2022-11-05T07:06:56.143Z,97715.56
2022-11-05T07:10:00.412Z,97719.69
2022-11-05T07:13:07.790Z,97729.34
2022-11-05T07:16:11.602Z,97733.34
2022-11-05T07:19:14.470Z,97736.47
2022-11-05T07:22:17.465Z,97740.09
2022-11-05T07:25:21.684Z,97744.97
2022-11-05T07:28:24.542Z,97751.28
2022-11-05T07:31:27.399Z,97753.69
2022-11-05T07:34:30.421Z,97765.22
2022-11-05T07:37:33.418Z,97768.56
2022-11-05T07:40:37.581Z,97769.56
2022-11-05T07:43:40.412Z,97781.69
2022-11-05T07:46:43.290Z,97797.81
2022-11-05T07:49:46.119Z,97798.47
2022-11-05T07:52:49.539Z,97798.31
2022-11-05T07:55:53.758Z,97808.81
2022-11-05T07:58:56.838Z,97811.91
2022-11-05T08:01:59.879Z,97818.47
2022-11-05T08:05:02.913Z,97821.22
2022-11-05T08:08:06.958Z,97828.94
2022-11-05T08:11:12.594Z,97827.50
2022-11-05T08:14:15.474Z,97840.47
2022-11-05T08:17:18.708Z,97834.84
2022-11-05T08:20:21.634Z,97836.03
2022-11-05T08:23:24.536Z,97836.56
2022-11-05T08:26:28.895Z,97842.47
2022-11-05T08:29:31.779Z,97846.06
2022-11-05T08:32:35.275Z,97841.50
2022-11-05T08:35:39.602Z,97843.75
2022-11-05T08:38:42.624Z,97850.06
2022-11-05T08:41:47.122Z,97856.63
2022-11-05T08:44:49.982Z,97859.63
2022-11-05T08:47:52.862Z,97864.50
2022-11-05T08:50:55.846Z,97871.38
2022-11-05T08:53:58.865Z,97866.50
2022-11-05T08:57:03.149Z,97874.06
2022-11-05T09:00:07.105Z,97875.03
2022-11-05T09:03:11.037Z,97882.97
2022-11-05T09:06:14.585Z,97883.47
2022-11-05T09:09:17.484Z,97887.09
2022-11-05T09:12:21.730Z,97888.09
2022-11-05T09:15:25.174Z,97888.09
2022-11-05T09:18:28.165Z,97892.28
2022-11-05T09:21:31.500Z,97883.22
2022-11-05T09:24:34.482Z,97894.44
2022-11-05T09:27:39.152Z,97895.25
2022-11-05T09:30:43.049Z,97892.09
2022-11-05T09:33:45.995Z,97896.53
2022-11-05T09:36:48.873Z,97898.84
2022-11-05T09:39:51.716Z,97911.59
2022-11-05T09:42:56.213Z,97913.47
2022-11-05T09:46:03.837Z,97920.22
2022-11-05T09:49:13.377Z,97934.06
2022-11-05T09:52:20.601Z,97936.09
2022-11-05T09:55:29.472Z,97934.78
2022-11-05T09:58:43.620Z,97920.94
2022-11-05T10:01:47.436Z,97904.91
2022-11-05T10:04:53.916Z,97901.50
2022-11-05T10:08:00.546Z,97894.69
2022-11-05T10:11:08.569Z,97886.88
2022-11-05T10:14:20.224Z,97876.47
2022-11-05T10:17:27.165Z,97873.56
2022-11-05T10:20:34.594Z,97861.31
2022-11-05T10:23:37.940Z,97834.72
2022-11-05T10:26:40.935Z,97799.41
2022-11-05T10:29:46.694Z,97767.56
2022-11-05T10:32:53.431Z,97727.84
2022-11-05T10:36:02.700Z,97694.00
2022-11-05T10:39:12.688Z,97673.81
2022-11-05T10:42:38.439Z,97657.22
2022-11-05T10:45:53.838Z,97647.94
2022-11-05T10:49:18.666Z,97630.75
2022-11-05T10:52:24.435Z,97588.75
2022-11-05T10:55:30.281Z,97541.06
2022-11-05T10:58:35.371Z,97514.50
2022-11-05T11:01:39.952Z,97505.34
2022-11-05T11:04:43.269Z,97492.47
2022-11-05T11:08:00.976Z,97501.03
2022-11-05T11:11:06.341Z,97495.66
2022-11-05T11:14:22.397Z,97485.41
2022-11-05T11:17:31.517Z,97491.00
2022-11-05T11:20:34.892Z,97493.75
2022-11-05T11:23:39.802Z,97488.47
2022-11-05T11:26:43.320Z,97472.91
2022-11-05T11:29:51.475Z,97465.22
2022-11-05T11:33:01.076Z,97472.03
2022-11-05T11:36:04.260Z,97446.53
2022-11-05T11:39:08.566Z,97446.03
2022-11-05T11:42:20.729Z,97447.03
2022-11-05T11:45:29.112Z,97457.59
2022-11-05T11:48:37.401Z,97453.25
2022-11-05T11:51:49.453Z,97464.63
2022-11-05T11:54:53.569Z,97455.06
2022-11-05T11:58:09.064Z,97449.66
2022-11-05T12:01:37.771Z,97454.56
2022-11-05T12:05:24.808Z,97432.09
2022-11-05T12:08:45.517Z,97431.41
2022-11-05T12:11:58.440Z,97430.25
2022-11-05T12:15:16.420Z,97438.31
2022-11-05T12:18:28.094Z,97438.19
2022-11-05T12:21:53.081Z,97439.66
2022-11-05T12:25:23.794Z,97436.22
2022-11-05T12:29:16.653Z,97434.00
2022-11-05T12:32:49.245Z,97434.47
2022-11-05T12:36:07.232Z,97428.78
2022-11-05T12:39:39.967Z,97446.31
2022-11-05T12:43:03.587Z,97445.19
2022-11-05T12:46:30.312Z,97446.59
2022-11-05T12:49:49.042Z,97445.84
2022-11-05T12:53:10.337Z,97449.31
2022-11-05T12:56:20.876Z,97460.53
2022-11-05T12:59:29.260Z,97469.53
2022-11-05T13:02:38.678Z,97481.22
2022-11-05T13:05:46.293Z,97493.44
2022-11-05T13:08:59.375Z,97496.06
2022-11-05T13:12:08.390Z,97495.25
2022-11-05T13:15:21.481Z,97493.00
2022-11-05T13:18:29.210Z,97507.22
2022-11-05T13:21:33.011Z,97512.56
2022-11-05T13:24:40.735Z,97531.09
2022-11-05T13:27:53.766Z,97535.13
2022-11-05T13:31:01.187Z,97524.41
2022-11-05T13:34:10.216Z,97531.09
2022-11-05T13:37:33.178Z,97522.00
2022-11-05T13:40:45.152Z,97516.69
2022-11-05T13:44:11.063Z,97503.22
2022-11-05T13:47:31.363Z,97501.56
2022-11-05T13:51:03.818Z,97491.06
2022-11-05T13:54:33.219Z,97492.41
2022-11-05T13:58:11.629Z,97486.19
2022-11-05T14:01:28.713Z,97496.03
2022-11-05T14:04:36.254Z,97489.78
2022-11-05T14:07:46.425Z,97487.38
2022-11-05T14:11:00.985Z,97486.09
2022-11-05T14:14:07.923Z,97492.09
2022-11-05T14:17:28.796Z,97503.22
2022-11-05T14:20:47.898Z,97509.09
2022-11-05T14:23:52.771Z,97503.44
2022-11-05T14:27:43.581Z,97491.97
2022-11-05T14:30:48.055Z,97486.03
2022-11-05T14:34:03.322Z,97485.66
2022-11-05T14:37:25.839Z,97490.97
2022-11-05T14:40:36.863Z,97483.81
2022-11-05T14:43:47.591Z,97491.06
2022-11-05T14:46:53.937Z,97495.97
2022-11-05T14:50:03.110Z,97498.06
2022-11-05T14:53:13.499Z,97502.22
2022-11-05T14:56:20.122Z,97501.22
2022-11-05T14:59:35.925Z,97511.38
2022-11-05T15:02:39.772Z,97509.16
2022-11-05T15:05:52.703Z,97521.19
2022-11-05T15:09:04.856Z,97510.53
2022-11-05T15:12:15.426Z,97518.53
2022-11-05T15:15:22.751Z,97513.56
2022-11-05T15:18:31.096Z,97519.81
2022-11-05T15:21:39.402Z,97521.81
2022-11-05T15:24:43.799Z,97524.50
2022-11-05T15:27:57.548Z,97535.44
2022-11-05T15:31:03.333Z,97543.31
2022-11-05T15:34:22.205Z,97553.53
2022-11-05T15:37:28.135Z,97556.50
2022-11-05T15:40:33.080Z,97562.19
2022-11-05T15:43:36.109Z,97567.78
2022-11-05T15:46:39.172Z,97560.56
2022-11-05T15:49:44.270Z,97554.81
2022-11-05T15:52:53.923Z,97553.53
2022-11-05T15:56:01.873Z,97544.34
2022-11-05T15:59:06.786Z,97538.44
2022-11-05T16:02:26.784Z,97540.38
2022-11-05T16:05:33.478Z,97544.25
2022-11-05T16:08:37.826Z,97554.06
2022-11-05T16:11:41.574Z,97552.72
2022-11-05T16:14:45.047Z,97558.81
2022-11-05T16:17:51.714Z,97561.56
2022-11-05T16:21:01.848Z,97563.59
2022-11-05T16:24:06.994Z,97565.72
2022-11-05T16:27:19.348Z,97571.38
2022-11-05T16:30:22.893Z,97579.78
2022-11-05T16:33:27.457Z,97577.78
2022-11-05T16:36:32.192Z,97586.13
2022-11-05T16:39:36.658Z,97585.63
2022-11-05T16:42:41.428Z,97590.22
2022-11-05T16:45:44.410Z,97603.69
2022-11-05T16:48:48.015Z,97606.66
2022-11-05T16:51:50.989Z,97611.13
2022-11-05T16:54:55.482Z,97621.94
2022-11-05T16:57:59.387Z,97629.50
2022-11-05T17:01:04.981Z,97637.00
2022-11-05T17:04:10.303Z,97638.25
2022-11-05T17:07:13.475Z,97646.94
2022-11-05T17:10:18.772Z,97654.59
2022-11-05T17:13:21.792Z,97662.31
2022-11-05T17:16:26.360Z,97658.28
2022-11-05T17:19:29.532Z,97673.09
2022-11-05T17:22:32.513Z,97672.06
2022-11-05T17:25:36.752Z,97669.38
2022-11-05T17:28:41.156Z,97675.44
2022-11-05T17:31:44.187Z,97675.13
2022-11-05T17:34:47.032Z,97682.53
2022-11-05T17:37:50.468Z,97686.13
2022-11-05T17:40:54.802Z,97688.97
2022-11-05T17:43:58.622Z,97685.41
2022-11-05T17:47:01.481Z,97685.91
2022-11-05T17:50:05.367Z,97700.44
2022-11-05T17:53:08.321Z,97710.19
2022-11-05T17:56:14.300Z,97713.28
2022-11-05T17:59:18.172Z,97726.88
2022-11-05T18:02:21.160Z,97731.44
2022-11-05T18:05:27.830Z,97745.81
2022-11-05T18:08:31.917Z,97749.28
2022-11-05T18:11:37.628Z,97763.50
2022-11-05T18:14:40.467Z,97776.16
2022-11-05T18:17:44.509Z,97795.56
2022-11-05T18:20:47.449Z,97810.56
2022-11-05T18:23:50.400Z,97817.44
2022-11-05T18:26:54.747Z,97827.22
2022-11-05T18:29:57.799Z,97851.09
2022-11-05T18:33:01.145Z,97865.56
2022-11-05T18:36:04.256Z,97860.88
2022-11-05T18:39:08.553Z,97879.19
2022-11-05T18:42:12.810Z,97880.44
2022-11-05T18:45:15.946Z,97891.28
2022-11-05T18:48:19.015Z,97881.25
2022-11-05T18:51:22.462Z,97882.63
2022-11-05T18:54:25.332Z,97886.19
2022-11-05T18:57:29.543Z,97881.28
2022-11-05T19:00:32.867Z,97877.97
2022-11-05T19:03:35.702Z,97890.34
2022-11-05T19:06:39.138Z,97902.41
2022-11-05T19:09:42.267Z,97915.31
2022-11-05T19:12:46.637Z,97928.66
2022-11-05T19:15:49.676Z,97935.25
2022-11-05T19:18:53.045Z,97953.94
2022-11-05T19:21:55.937Z,97957.38
2022-11-05T19:24:59.021Z,97961.47
2022-11-05T19:28:03.190Z,97968.63
2022-11-05T19:31:07.475Z,97961.75
2022-11-05T19:34:10.406Z,97970.53
2022-11-05T19:37:13.227Z,97977.69
2022-11-05T19:40:16.209Z,97982.34
2022-11-05T19:43:20.475Z,97993.34
2022-11-05T19:46:24.534Z,98003.53
2022-11-05T19:49:28.203Z,98008.47
2022-11-05T19:52:31.075Z,98015.88
2022-11-05T19:55:34.031Z,98028.22
2022-11-05T19:58:38.339Z,98045.00
2022-11-05T20:01:41.343Z,98040.63
2022-11-05T20:04:44.510Z,98044.22
2022-11-05T20:07:52.823Z,98059.88
2022-11-05T20:10:56.406Z,98064.53
2022-11-05T20:14:00.604Z,98069.06
2022-11-05T20:17:03.486Z,98071.66
2022-11-05T20:20:07.758Z,98067.81
2022-11-05T20:23:10.658Z,98071.38
2022-11-05T20:26:14.689Z,98073.72
2022-11-05T20:29:19.017Z,98078.56
2022-11-05T20:32:21.908Z,98078.03
2022-11-05T20:35:25.287Z,98074.72
2022-11-05T20:38:28.264Z,98079.69
2022-11-05T20:41:32.207Z,98086.28
2022-11-05T20:44:36.475Z,98098.38
2022-11-05T20:47:39.479Z,98101.19
2022-11-05T20:50:43.043Z,98097.09
2022-11-05T20:53:47.268Z,98101.91
2022-11-05T20:56:50.174Z,98109.03
2022-11-05T20:59:54.954Z,98125.31
2022-11-05T21:02:57.965Z,98113.63
2022-11-05T21:06:05.831Z,98122.41
2022-11-05T21:09:09.131Z,98126.94
2022-11-05T21:12:12.034Z,98132.63
2022-11-05T21:15:20.255Z,98133.69
2022-11-05T21:18:24.917Z,98132.88
2022-11-05T21:21:27.779Z,98127.50
2022-11-05T21:24:32.647Z,98122.97
2022-11-05T21:27:37.943Z,98129.31
2022-11-05T21:30:46.564Z,98122.44
2022-11-05T21:33:54.823Z,98116.41
2022-11-05T21:36:57.896Z,98110.94
2022-11-05T21:40:00.556Z,98108.06
2022-11-05T21:43:03.189Z,98103.53
2022-11-05T21:46:07.432Z,98099.09
2022-11-05T21:49:10.309Z,98091.94
2022-11-05T21:52:45.035Z,98089.72
2022-11-05T21:56:05.397Z,98072.31
2022-11-05T21:59:28.672Z,98060.47
2022-11-05T22:02:33.098Z,98060.06
2022-11-05T22:05:35.860Z,98051.38
2022-11-05T22:08:38.501Z,98043.56
2022-11-05T22:11:41.140Z,98030.22
2022-11-05T22:14:43.799Z,98016.47
2022-11-05T22:17:50.188Z,98002.97
2022-11-05T22:20:52.940Z,97996.88
2022-11-05T22:23:55.588Z,97984.22
2022-11-05T22:26:58.322Z,97991.44
2022-11-05T22:30:00.985Z,97980.97
2022-11-05T22:33:05.075Z,97970.66
2022-11-05T22:36:08.250Z,97967.66
2022-11-05T22:39:11.624Z,97961.00
2022-11-05T22:42:14.400Z,97967.31
2022-11-05T22:45:17.137Z,97947.09
2022-11-05T22:48:21.178Z,97956.13
2022-11-05T22:51:25.205Z,97950.38
2022-11-05T22:54:27.967Z,97940.47
2022-11-05T22:57:30.669Z,97942.41
2022-11-05T23:00:34.869Z,97934.97
2022-11-05T23:03:39.499Z,97921.34
2022-11-05T23:06:59.760Z,97921.91
2022-11-05T23:10:19.861Z,97915.03
2022-11-05T23:13:22.483Z,97908.59
2022-11-05T23:16:42.385Z,97912.94
2022-11-05T23:20:03.990Z,97912.13
2022-11-05T23:23:24.995Z,97909.13
2022-11-05T23:26:45.224Z,97908.00
2022-11-05T23:29:47.887Z,97904.13
2022-11-05T23:32:50.092Z,97901.53
2022-11-05T23:36:11.741Z,97912.06
2022-11-05T23:39:14.518Z,97900.44
2022-11-05T23:42:34.697Z,97894.78
2022-11-05T23:45:56.590Z,97883.53
2022-11-05T23:48:59.243Z,97881.06
2022-11-05T23:52:03.568Z,97890.66
2022-11-05T23:55:06.665Z,97885.41
2022-11-05T23:58:09.657Z,97883.19
